Time;durP1;ratioP1;P1;durP2;ratioP2;P2;SDS_P1;SDS_P2;PMS_P1;PMS_P2;Temp;Humidity;BMP_temperature;BMP_pressure;BME280_temperature;BME280_humidity;BME280_pressure;Samples;Min_cycle;Max_cycle;Signal;HPM_P1;HPM_P2
2023/09/03 00:00:58;;;;;;;2.10;1.85;;;18.00;99.90;;;;;;5051993;28;20205;-60
2023/09/03 00:03:26;;;;;;;2.30;1.88;;;18.00;99.90;;;;;;5052500;28;20561;-60
2023/09/03 00:05:54;;;;;;;4.68;1.90;;;18.00;99.90;;;;;;5052021;28;20229;-60
2023/09/03 00:08:22;;;;;;;3.33;1.98;;;18.00;99.90;;;;;;5052171;28;20213;-60
2023/09/03 00:10:52;;;;;;;5.95;2.33;;;18.00;99.90;;;;;;5051958;28;20208;-59
2023/09/03 00:13:19;;;;;;;4.55;2.10;;;18.00;99.90;;;;;;5052478;28;20578;-60
2023/09/03 00:15:46;;;;;;;3.53;1.92;;;17.90;99.90;;;;;;5052052;28;20226;-60
2023/09/03 00:18:14;;;;;;;2.47;2.03;;;17.90;99.90;;;;;;5052105;28;20212;-60
2023/09/03 00:20:54;;;;;;;3.13;2.10;;;17.90;99.90;;;;;;5051754;28;20206;-60
2023/09/03 00:23:20;;;;;;;4.30;2.20;;;17.80;99.90;;;;;;5051802;28;20209;-60
2023/09/03 00:25:47;;;;;;;6.50;2.03;;;17.80;99.90;;;;;;5051279;28;20615;-60
2023/09/03 00:28:14;;;;;;;6.63;2.20;;;17.80;99.90;;;;;;5051654;28;20212;-60
2023/09/03 00:30:40;;;;;;;3.00;2.22;;;17.80;99.90;;;;;;5051645;28;20687;-59
2023/09/03 00:33:07;;;;;;;1.83;1.73;;;17.80;99.90;;;;;;5051794;28;20213;-59
2023/09/03 00:35:34;;;;;;;4.00;2.15;;;17.70;99.90;;;;;;5051574;28;20225;-60
2023/09/03 00:38:02;;;;;;;4.25;2.17;;;17.70;99.90;;;;;;5051567;28;20205;-60
2023/09/03 00:40:29;;;;;;;4.13;2.13;;;17.70;99.90;;;;;;5051873;28;20556;-60
2023/09/03 00:42:56;;;;;;;2.38;1.90;;;17.70;99.90;;;;;;5051817;28;20233;-60
2023/09/03 00:45:22;;;;;;;7.20;2.20;;;17.60;99.90;;;;;;5052116;28;20225;-60
2023/09/03 00:47:49;;;;;;;3.47;2.00;;;17.60;99.90;;;;;;5051793;28;20249;-60
2023/09/03 00:50:16;;;;;;;6.05;2.30;;;17.60;99.90;;;;;;5051834;28;20201;-60
2023/09/03 00:52:42;;;;;;;3.42;2.05;;;17.60;99.90;;;;;;5051484;28;20228;-60
2023/09/03 00:55:10;;;;;;;4.25;1.95;;;17.60;99.90;;;;;;5051321;28;20704;-60
2023/09/03 00:57:37;;;;;;;2.85;2.13;;;17.60;99.90;;;;;;5050826;28;20205;-60
2023/09/03 01:00:04;;;;;;;3.50;1.80;;;17.70;99.90;;;;;;5051282;28;20233;-60
2023/09/03 01:02:31;;;;;;;2.67;2.03;;;17.70;99.90;;;;;;5050599;28;20204;-60
2023/09/03 01:04:58;;;;;;;5.30;2.08;;;17.70;99.90;;;;;;5051008;28;20238;-60
2023/09/03 01:07:24;;;;;;;1.90;1.70;;;17.70;99.90;;;;;;5050903;28;20241;-60
2023/09/03 01:09:51;;;;;;;4.38;2.35;;;17.70;99.90;;;;;;5050993;28;20204;-60
2023/09/03 01:12:25;;;;;;;5.30;1.90;;;17.70;99.90;;;;;;5051217;28;20201;-60
2023/09/03 01:14:59;;;;;;;3.40;1.83;;;17.70;99.90;;;;;;5051074;28;20213;-60
2023/09/03 01:17:32;;;;;;;5.18;2.25;;;17.60;99.90;;;;;;5050728;28;20209;-60
2023/09/03 01:20:06;;;;;;;2.78;2.08;;;17.60;99.90;;;;;;5050866;28;20693;-59
2023/09/03 01:23:00;;;;;;;3.40;1.90;;;17.60;99.90;;;;;;5051320;28;20209;-60
2023/09/03 01:25:44;;;;;;;4.43;2.35;;;17.60;99.90;;;;;;5051076;28;20229;-60
2023/09/03 01:28:23;;;;;;;2.55;2.08;;;17.70;99.90;;;;;;5050750;28;20764;-59
2023/09/03 01:30:52;;;;;;;3.65;2.05;;;17.70;99.90;;;;;;5051134;28;20634;-58
2023/09/03 01:33:19;;;;;;;2.42;2.03;;;17.70;99.90;;;;;;5051142;28;20205;-59
2023/09/03 01:35:47;;;;;;;4.57;2.45;;;17.70;99.90;;;;;;5050890;28;20232;-60
2023/09/03 01:38:15;;;;;;;3.85;2.20;;;17.70;99.90;;;;;;5051084;28;20212;-60
2023/09/03 01:40:42;;;;;;;3.85;2.13;;;17.70;99.90;;;;;;5050655;28;20316;-60
2023/09/03 01:43:08;;;;;;;3.20;2.13;;;17.80;99.90;;;;;;5050674;28;20206;-59
2023/09/03 01:45:43;;;;;;;4.95;2.08;;;17.80;99.90;;;;;;5050841;28;20601;-60
2023/09/03 01:48:17;;;;;;;5.53;2.38;;;17.90;99.90;;;;;;5050763;28;20216;-60
2023/09/03 01:50:50;;;;;;;2.70;2.08;;;18.00;99.90;;;;;;5050803;28;20212;-59
2023/09/03 01:53:22;;;;;;;2.92;1.98;;;18.10;99.90;;;;;;5050734;28;20311;-59
2023/09/03 01:55:57;;;;;;;3.95;2.50;;;18.10;99.90;;;;;;5059432;23;20237;-61
2023/09/03 01:58:27;;;;;;;3.28;2.10;;;18.10;99.90;;;;;;5042295;28;20640;-62
2023/09/03 02:00:56;;;;;;;6.15;2.50;;;18.20;99.90;;;;;;5050303;28;20201;-62
2023/09/03 02:03:26;;;;;;;5.93;2.70;;;18.20;99.90;;;;;;5050288;28;20236;-62
2023/09/03 02:05:53;;;;;;;3.25;2.47;;;18.20;99.90;;;;;;5050225;28;20237;-62
2023/09/03 02:08:20;;;;;;;2.85;2.33;;;18.20;99.90;;;;;;5050494;28;20210;-61
2023/09/03 02:10:46;;;;;;;4.97;1.75;;;18.20;99.90;;;;;;5050772;28;20205;-63
2023/09/03 02:13:13;;;;;;;3.25;2.13;;;18.20;99.90;;;;;;5050345;28;20594;-62
2023/09/03 02:15:40;;;;;;;4.13;2.00;;;18.20;99.90;;;;;;5052738;28;20229;-62
2023/09/03 02:18:08;;;;;;;4.38;2.10;;;18.20;99.90;;;;;;5053943;28;20296;-63
2023/09/03 02:20:35;;;;;;;2.10;1.90;;;18.20;99.90;;;;;;5053669;28;20716;-62
2023/09/03 02:23:02;;;;;;;3.13;1.95;;;18.20;99.90;;;;;;5053693;28;20684;-62
2023/09/03 02:25:28;;;;;;;4.32;2.40;;;18.10;99.90;;;;;;5053594;28;20598;-62
2023/09/03 02:27:55;;;;;;;3.22;2.08;;;18.00;99.90;;;;;;5053855;28;20201;-62
2023/09/03 02:30:22;;;;;;;6.78;2.40;;;17.90;99.90;;;;;;5053784;28;20201;-62
2023/09/03 02:32:48;;;;;;;4.38;2.00;;;17.90;99.90;;;;;;5053686;28;20623;-62
2023/09/03 02:35:17;;;;;;;3.60;1.90;;;17.80;99.90;;;;;;5053472;28;20257;-63
2023/09/03 02:37:43;;;;;;;2.45;2.08;;;17.70;99.90;;;;;;5053131;28;20636;-61
2023/09/03 02:40:11;;;;;;;2.33;1.95;;;17.70;99.90;;;;;;5053351;28;20221;-62
2023/09/03 02:42:37;;;;;;;2.25;1.92;;;17.60;99.90;;;;;;5053635;28;20217;-63
2023/09/03 02:45:05;;;;;;;3.58;2.20;;;17.60;99.90;;;;;;5053333;28;20209;-62
2023/09/03 02:47:31;;;;;;;3.30;2.20;;;17.60;99.90;;;;;;5053010;28;20604;-62
2023/09/03 02:49:58;;;;;;;2.85;2.20;;;17.60;99.90;;;;;;5053500;28;20206;-61
2023/09/03 02:52:26;;;;;;;2.53;2.00;;;17.50;99.90;;;;;;5053473;28;20201;-61
2023/09/03 02:54:53;;;;;;;4.72;2.35;;;17.50;99.90;;;;;;5053192;28;20221;-62
2023/09/03 02:57:20;;;;;;;3.70;2.20;;;17.50;99.90;;;;;;5053000;28;20316;-62
2023/09/03 02:59:46;;;;;;;3.75;2.45;;;17.40;99.90;;;;;;5053000;28;20719;-61
2023/09/03 03:02:13;;;;;;;5.97;2.33;;;17.40;99.90;;;;;;5052893;28;20209;-63
2023/09/03 03:04:40;;;;;;;5.53;2.40;;;17.40;99.90;;;;;;5053280;28;20201;-64
2023/09/03 03:07:06;;;;;;;2.33;2.10;;;17.30;99.90;;;;;;5052645;28;20226;-62
2023/09/03 03:09:34;;;;;;;7.47;2.30;;;17.20;99.90;;;;;;5053452;28;20215;-62
2023/09/03 03:12:01;;;;;;;3.72;2.30;;;17.20;99.90;;;;;;5053554;28;20202;-62
2023/09/03 03:14:30;;;;;;;2.92;2.10;;;17.20;99.90;;;;;;5053505;28;20206;-62
2023/09/03 03:16:56;;;;;;;3.08;2.20;;;17.20;99.90;;;;;;5052914;28;20229;-63
2023/09/03 03:19:23;;;;;;;2.65;2.15;;;17.10;99.90;;;;;;5052948;28;20233;-62
2023/09/03 03:21:50;;;;;;;2.83;2.30;;;17.10;99.90;;;;;;5052875;28;20210;-62
2023/09/03 03:24:17;;;;;;;6.45;2.10;;;17.10;99.90;;;;;;5052708;28;20205;-62
2023/09/03 03:26:45;;;;;;;3.17;2.33;;;17.00;99.90;;;;;;5051736;28;20265;-63
2023/09/03 03:29:11;;;;;;;3.03;2.35;;;16.90;99.90;;;;;;5052780;28;20210;-62
2023/09/03 03:31:38;;;;;;;2.95;2.10;;;16.90;99.90;;;;;;5052528;28;20214;-61
2023/09/03 03:34:05;;;;;;;3.83;2.50;;;16.90;99.90;;;;;;5052518;28;20228;-62
2023/09/03 03:36:32;;;;;;;5.72;2.45;;;16.90;99.90;;;;;;5052216;28;20303;-61
2023/09/03 03:38:58;;;;;;;3.83;2.30;;;16.90;99.90;;;;;;5052233;28;20255;-62
2023/09/03 03:41:25;;;;;;;3.60;2.40;;;16.90;99.90;;;;;;5052392;28;20210;-61
2023/09/03 03:43:53;;;;;;;5.95;2.30;;;16.80;99.90;;;;;;5052540;28;20216;-62
2023/09/03 03:46:21;;;;;;;2.67;2.08;;;16.80;99.90;;;;;;5052044;28;20229;-63
2023/09/03 03:48:49;;;;;;;3.03;1.75;;;16.80;99.90;;;;;;5052579;28;20209;-63
2023/09/03 03:51:16;;;;;;;3.83;2.10;;;16.80;99.90;;;;;;5051958;28;20205;-61
2023/09/03 03:53:43;;;;;;;3.55;2.38;;;16.80;99.90;;;;;;5052177;28;20205;-61
2023/09/03 03:56:12;;;;;;;4.93;2.25;;;16.80;99.90;;;;;;5051687;28;20276;-62
2023/09/03 03:58:40;;;;;;;4.78;2.20;;;16.80;99.90;;;;;;5051943;28;20267;-62
2023/09/03 04:01:13;;;;;;;2.40;2.17;;;16.80;99.90;;;;;;5052293;28;20224;-62
2023/09/03 04:03:39;;;;;;;4.40;2.30;;;16.70;99.90;;;;;;5052208;28;20206;-63
2023/09/03 04:06:06;;;;;;;7.30;2.22;;;16.80;99.90;;;;;;5051891;28;20221;-62
2023/09/03 04:08:35;;;;;;;3.13;1.80;;;16.80;99.90;;;;;;5052359;28;20681;-63
2023/09/03 04:11:04;;;;;;;5.40;2.33;;;16.80;99.90;;;;;;5051670;28;20665;-64
2023/09/03 04:13:32;;;;;;;2.92;2.15;;;16.70;99.90;;;;;;5052239;28;20210;-62
2023/09/03 04:15:59;;;;;;;4.22;2.55;;;16.80;99.90;;;;;;5051538;28;20232;-62
2023/09/03 04:18:28;;;;;;;2.92;2.20;;;16.80;99.90;;;;;;5051676;28;20201;-63
2023/09/03 04:20:57;;;;;;;5.88;2.47;;;16.90;99.90;;;;;;5051564;28;20225;-63
2023/09/03 04:23:24;;;;;;;5.13;2.85;;;16.90;99.90;;;;;;5051855;28;20213;-62
2023/09/03 04:25:51;;;;;;;5.20;2.22;;;16.80;99.90;;;;;;5051284;28;20232;-63
2023/09/03 04:28:19;;;;;;;4.47;2.40;;;16.80;99.90;;;;;;5051385;28;20625;-63
2023/09/03 04:30:45;;;;;;;3.35;2.20;;;16.80;99.90;;;;;;5051681;28;20215;-60
2023/09/03 04:33:12;;;;;;;3.88;2.50;;;16.80;99.90;;;;;;5051368;28;20700;-62
2023/09/03 04:35:40;;;;;;;2.10;1.85;;;16.80;99.90;;;;;;5051197;28;20229;-61
2023/09/03 04:38:07;;;;;;;4.07;2.00;;;16.80;99.90;;;;;;5050378;28;20247;-62
2023/09/03 04:40:35;;;;;;;2.72;2.10;;;16.80;99.90;;;;;;5051399;28;20230;-61
2023/09/03 04:43:02;;;;;;;3.08;1.90;;;16.80;99.90;;;;;;5051066;28;20578;-62
2023/09/03 04:45:29;;;;;;;3.38;2.45;;;16.80;99.90;;;;;;5051215;28;20236;-63
2023/09/03 04:47:56;;;;;;;3.92;2.13;;;16.90;99.90;;;;;;5050921;28;20206;-62
2023/09/03 04:50:22;;;;;;;3.88;2.15;;;16.90;99.90;;;;;;5051249;28;20197;-62
2023/09/03 04:52:50;;;;;;;4.97;2.40;;;17.00;99.90;;;;;;5050945;28;20201;-62
2023/09/03 04:55:17;;;;;;;3.40;2.10;;;17.10;99.90;;;;;;5050949;28;20247;-62
2023/09/03 04:57:44;;;;;;;3.90;2.35;;;17.10;99.90;;;;;;5051000;28;20216;-63
2023/09/03 05:00:12;;;;;;;3.85;2.10;;;17.20;99.90;;;;;;5051190;28;20222;-63
2023/09/03 05:02:39;;;;;;;4.45;2.53;;;17.20;99.90;;;;;;5051117;28;20216;-62
2023/09/03 05:05:06;;;;;;;3.60;2.85;;;17.30;99.90;;;;;;5050942;28;20205;-62
2023/09/03 05:07:33;;;;;;;2.97;2.15;;;17.30;99.90;;;;;;5050805;28;20669;-62
2023/09/03 05:10:01;;;;;;;4.97;2.25;;;17.40;99.90;;;;;;5051085;28;20343;-61
2023/09/03 05:12:28;;;;;;;5.05;2.47;;;17.50;99.90;;;;;;5051198;28;20208;-62
2023/09/03 05:14:55;;;;;;;3.75;2.58;;;17.50;99.90;;;;;;5051005;28;20205;-62
2023/09/03 05:17:21;;;;;;;3.38;2.13;;;17.50;99.90;;;;;;5050730;28;20206;-62
2023/09/03 05:19:48;;;;;;;3.55;2.10;;;17.60;99.90;;;;;;5051058;28;20215;-62
2023/09/03 05:22:15;;;;;;;5.25;2.22;;;17.80;99.90;;;;;;5051298;28;20233;-62
2023/09/03 05:24:42;;;;;;;9.10;2.38;;;17.90;99.90;;;;;;5051634;28;20206;-62
2023/09/03 05:27:10;;;;;;;3.70;2.30;;;18.00;99.90;;;;;;5050949;28;20226;-62
2023/09/03 05:29:37;;;;;;;5.57;1.95;;;18.00;99.90;;;;;;5050892;28;20669;-61
2023/09/03 05:32:04;;;;;;;2.20;1.98;;;18.10;99.90;;;;;;5054580;28;20221;-62
2023/09/03 05:34:31;;;;;;;2.92;2.30;;;18.20;99.90;;;;;;5057121;28;20205;-60
2023/09/03 05:36:57;;;;;;;3.35;2.10;;;18.20;99.90;;;;;;5051138;28;20229;-61
2023/09/03 05:39:25;;;;;;;5.32;2.00;;;18.30;99.90;;;;;;5051409;28;20213;-62
2023/09/03 05:41:52;;;;;;;4.80;2.05;;;18.30;99.90;;;;;;5051946;28;20265;-61
2023/09/03 05:44:20;;;;;;;4.18;2.08;;;18.40;99.90;;;;;;5051746;28;20312;-62
2023/09/03 05:46:46;;;;;;;3.42;2.10;;;18.40;99.90;;;;;;5050833;28;20779;-62
2023/09/03 05:49:13;;;;;;;4.03;2.22;;;18.50;99.90;;;;;;5051414;28;20618;-61
2023/09/03 05:51:41;;;;;;;2.13;1.85;;;18.60;99.90;;;;;;5054817;28;20201;-61
2023/09/03 05:54:08;;;;;;;2.67;1.85;;;18.70;99.90;;;;;;5054783;28;20237;-61
2023/09/03 05:56:35;;;;;;;3.67;1.95;;;18.90;99.90;;;;;;5053953;28;20240;-62
2023/09/03 05:59:05;;;;;;;2.30;2.00;;;19.00;99.90;;;;;;5054537;28;20237;-63
2023/09/03 06:01:34;;;;;;;2.85;1.88;;;19.10;99.90;;;;;;5053849;28;20222;-62
2023/09/03 06:04:04;;;;;;;3.72;2.25;;;19.30;99.90;;;;;;5054214;28;20673;-63
2023/09/03 06:06:35;;;;;;;3.17;2.08;;;19.50;99.90;;;;;;5053980;28;20287;-62
2023/09/03 06:09:02;;;;;;;3.90;1.73;;;19.70;99.90;;;;;;5054292;28;20217;-61
2023/09/03 06:11:29;;;;;;;3.55;2.05;;;19.90;99.90;;;;;;5053720;28;20607;-62
2023/09/03 06:13:56;;;;;;;4.13;2.10;;;20.20;99.90;;;;;;5054143;28;20214;-61
2023/09/03 06:16:22;;;;;;;3.17;2.22;;;20.50;99.90;;;;;;5054031;28;20287;-60
2023/09/03 06:18:51;;;;;;;5.20;2.10;;;20.80;99.90;;;;;;5054296;28;20212;-61
2023/09/03 06:21:17;;;;;;;3.70;1.80;;;21.00;99.90;;;;;;5053781;28;20229;-62
2023/09/03 06:23:44;;;;;;;3.20;2.00;;;21.30;99.90;;;;;;5053773;28;20213;-62
2023/09/03 06:26:11;;;;;;;5.78;2.05;;;21.60;99.90;;;;;;5053528;28;20228;-62
2023/09/03 06:28:37;;;;;;;3.40;1.90;;;21.80;99.90;;;;;;5053324;28;20217;-62
2023/09/03 06:31:04;;;;;;;3.90;2.00;;;22.00;99.90;;;;;;5053910;28;20206;-62
2023/09/03 06:33:31;;;;;;;6.82;2.13;;;22.30;99.90;;;;;;5053933;28;20251;-62
2023/09/03 06:35:59;;;;;;;2.72;2.00;;;22.60;99.90;;;;;;5053320;28;20232;-63
2023/09/03 06:38:26;;;;;;;3.35;2.00;;;23.00;99.90;;;;;;5053061;28;20584;-63
2023/09/03 06:40:53;;;;;;;2.13;1.70;;;23.10;99.90;;;;;;5054202;28;20260;-62
2023/09/03 06:43:19;;;;;;;6.82;2.40;;;23.20;99.90;;;;;;5055962;28;20213;-64
2023/09/03 06:45:46;;;;;;;4.30;2.28;;;23.30;99.90;;;;;;5055447;28;20716;-62
2023/09/03 06:48:13;;;;;;;2.97;2.38;;;23.30;99.90;;;;;;5055136;28;20205;-63
2023/09/03 06:50:41;;;;;;;2.58;2.00;;;23.40;99.90;;;;;;5055147;28;20212;-63
2023/09/03 06:53:10;;;;;;;2.90;1.80;;;23.40;99.90;;;;;;5053799;28;20232;-62
2023/09/03 06:55:37;;;;;;;3.53;1.95;;;23.50;99.90;;;;;;5053923;28;20252;-63
2023/09/03 06:58:04;;;;;;;5.78;2.40;;;23.40;99.90;;;;;;5056437;28;20209;-64
2023/09/03 07:00:31;;;;;;;4.05;1.70;;;23.30;99.90;;;;;;5055205;28;20279;-62
2023/09/03 07:02:58;;;;;;;5.60;2.30;;;23.10;99.90;;;;;;5055289;28;20206;-63
2023/09/03 07:05:25;;;;;;;3.55;2.20;;;23.20;99.90;;;;;;5055169;28;20229;-62
2023/09/03 07:07:51;;;;;;;6.40;2.90;;;23.30;99.90;;;;;;5054956;28;20213;-62
2023/09/03 07:10:20;;;;;;;4.32;2.30;;;23.10;99.90;;;;;;5055205;28;20224;-63
2023/09/03 07:12:46;;;;;;;3.13;2.05;;;23.00;99.90;;;;;;5054839;28;20202;-62
2023/09/03 07:15:13;;;;;;;3.60;2.25;;;23.10;99.90;;;;;;5054896;28;20298;-65
2023/09/03 07:17:40;;;;;;;3.60;2.05;;;23.30;99.90;;;;;;5054638;28;20209;-60
2023/09/03 07:20:08;;;;;;;7.63;3.03;;;23.40;99.90;;;;;;5053921;28;20225;-61
2023/09/03 07:22:35;;;;;;;2.35;2.10;;;23.30;99.90;;;;;;5053748;28;20228;-59
2023/09/03 07:25:03;;;;;;;2.72;2.30;;;23.30;99.90;;;;;;5053987;28;20243;-61
2023/09/03 07:27:31;;;;;;;3.70;2.25;;;23.70;99.90;;;;;;5053351;28;20209;-60
2023/09/03 07:29:58;;;;;;;4.65;2.22;;;24.10;99.90;;;;;;5052944;28;20749;-60
2023/09/03 07:32:25;;;;;;;2.83;2.05;;;24.50;99.90;;;;;;5052496;28;20201;-62
2023/09/03 07:34:51;;;;;;;3.20;2.50;;;25.00;99.90;;;;;;5052670;28;20209;-61
2023/09/03 07:37:19;;;;;;;5.53;2.30;;;25.50;99.90;;;;;;5052435;28;20280;-60
2023/09/03 07:39:46;;;;;;;3.83;2.20;;;25.60;99.90;;;;;;5052284;28;20210;-60
2023/09/03 07:42:13;;;;;;;4.82;2.40;;;25.50;99.90;;;;;;5052313;28;20252;-60
2023/09/03 07:44:41;;;;;;;3.42;2.40;;;25.90;99.90;;;;;;5052384;28;20216;-61
2023/09/03 07:47:07;;;;;;;3.67;2.58;;;26.40;99.90;;;;;;5051815;28;20709;-60
2023/09/03 07:49:34;;;;;;;4.97;2.22;;;26.80;99.90;;;;;;5052486;28;20206;-60
2023/09/03 07:52:01;;;;;;;4.20;2.30;;;27.50;99.90;;;;;;5052464;28;20206;-60
2023/09/03 07:54:27;;;;;;;3.97;2.67;;;28.00;99.90;;;;;;5052447;28;20212;-61
2023/09/03 07:56:55;;;;;;;3.10;2.42;;;28.00;99.90;;;;;;5083060;23;20737;-60
2023/09/03 07:59:21;;;;;;;3.03;2.22;;;27.90;99.90;;;;;;5066359;28;20232;-60
2023/09/03 08:01:50;;;;;;;4.57;2.70;;;27.90;99.90;;;;;;5071968;28;20242;-60
2023/09/03 08:04:16;;;;;;;6.60;2.97;;;27.70;99.90;;;;;;5071943;28;20209;-60
2023/09/03 08:06:43;;;;;;;2.92;2.63;;;27.50;99.90;;;;;;5072296;28;20225;-60
2023/09/03 08:09:10;;;;;;;4.50;3.10;;;27.10;99.90;;;;;;5071850;28;20552;-59
2023/09/03 08:11:36;;;;;;;4.25;3.33;;;27.20;99.90;;;;;;5072132;28;20220;-60
2023/09/03 08:14:03;;;;;;;3.65;3.33;;;26.80;99.90;;;;;;5071856;28;20205;-60
2023/09/03 08:16:30;;;;;;;11.55;5.43;;;26.30;99.90;;;;;;5071806;28;20584;-60
2023/09/03 08:18:58;;;;;;;4.55;3.83;;;25.80;99.90;;;;;;5071678;28;20209;-61
2023/09/03 08:21:24;;;;;;;4.50;3.67;;;25.20;99.90;;;;;;5071896;28;20229;-60
2023/09/03 08:23:51;;;;;;;4.25;3.70;;;24.50;99.90;;;;;;5071968;28;20212;-60
2023/09/03 08:26:19;;;;;;;8.82;3.92;;;24.30;99.90;;;;;;5071495;28;20248;-60
2023/09/03 08:28:46;;;;;;;5.10;3.28;;;24.40;99.90;;;;;;5071537;28;20205;-59
2023/09/03 08:31:13;;;;;;;5.57;3.45;;;24.70;99.90;;;;;;5071510;28;20233;-59
2023/09/03 08:33:40;;;;;;;8.88;5.75;;;24.90;99.90;;;;;;5071405;28;20683;-59
2023/09/03 08:36:08;;;;;;;5.85;3.80;;;25.20;99.90;;;;;;5071412;28;20229;-58
2023/09/03 08:38:35;;;;;;;7.15;3.45;;;25.30;99.90;;;;;;5071715;28;20212;-58
2023/09/03 08:41:02;;;;;;;6.35;3.80;;;25.40;99.90;;;;;;5071504;28;20227;-58
2023/09/03 08:43:30;;;;;;;6.03;3.90;;;25.50;99.90;;;;;;5071692;28;20523;-58
2023/09/03 08:46:02;;;;;;;5.25;3.63;;;25.80;99.90;;;;;;5070914;28;20651;-59
2023/09/03 08:48:29;;;;;;;3.65;3.33;;;26.00;99.90;;;;;;5071412;28;20660;-59
2023/09/03 08:50:57;;;;;;;4.05;3.22;;;26.20;99.90;;;;;;5071744;28;20208;-59
2023/09/03 08:53:25;;;;;;;4.65;3.50;;;26.50;99.90;;;;;;5071804;28;20201;-59
2023/09/03 08:55:53;;;;;;;4.35;2.90;;;26.60;99.90;;;;;;5071118;28;20240;-58
2023/09/03 08:58:20;;;;;;;4.75;3.03;;;26.50;99.90;;;;;;5071579;28;20749;-56
2023/09/03 09:00:47;;;;;;;4.95;2.35;;;26.20;99.90;;;;;;5071154;28;20231;-56
2023/09/03 09:03:15;;;;;;;6.55;2.80;;;26.30;99.90;;;;;;5071578;28;20557;-58
2023/09/03 09:05:43;;;;;;;3.25;2.95;;;26.40;99.90;;;;;;5071281;28;20232;-57
2023/09/03 09:08:10;;;;;;;3.85;3.03;;;26.60;99.90;;;;;;5071160;28;20213;-57
2023/09/03 09:10:43;;;;;;;4.97;2.80;;;26.80;99.90;;;;;;5071196;28;20212;-56
2023/09/03 09:13:12;;;;;;;3.58;2.80;;;26.70;99.90;;;;;;5071218;28;20462;-56
2023/09/03 09:15:42;;;;;;;5.90;3.10;;;26.50;99.90;;;;;;5071591;28;20299;-57
2023/09/03 09:18:09;;;;;;;5.00;3.10;;;26.60;99.90;;;;;;5071324;28;20283;-56
2023/09/03 09:20:38;;;;;;;2.92;2.30;;;26.90;99.90;;;;;;5071333;28;20657;-56
2023/09/03 09:23:07;;;;;;;3.88;2.30;;;27.10;99.90;;;;;;5071411;28;20324;-57
2023/09/03 09:25:35;;;;;;;2.80;2.17;;;27.20;99.90;;;;;;5073997;28;20209;-57
2023/09/03 09:28:12;;;;;;;4.82;2.38;;;27.20;99.90;;;;;;5075282;28;20205;-56
2023/09/03 09:30:53;;;;;;;5.28;2.65;;;27.10;99.90;;;;;;5075608;28;20209;-57
2023/09/03 09:33:19;;;;;;;5.07;2.70;;;27.00;99.90;;;;;;5075298;28;20205;-55
2023/09/03 09:35:46;;;;;;;2.65;1.98;;;26.80;99.90;;;;;;5075088;28;20231;-59
2023/09/03 09:38:13;;;;;;;4.28;2.10;;;26.50;99.90;;;;;;5075344;28;20208;-53
2023/09/03 09:40:40;;;;;;;3.10;1.98;;;26.30;99.90;;;;;;5075694;28;20201;-53
2023/09/03 09:43:09;;;;;;;3.03;1.80;;;26.00;99.90;;;;;;5075075;28;20243;-53
2023/09/03 09:45:46;;;;;;;5.03;2.25;;;25.90;99.90;;;;;;5075172;28;20672;-53
2023/09/03 09:48:13;;;;;;;4.25;2.20;;;26.00;99.90;;;;;;5075873;28;20247;-54
2023/09/03 09:50:41;;;;;;;8.45;2.40;;;26.20;99.90;;;;;;5074831;28;20227;-54
2023/09/03 09:53:22;;;;;;;2.00;1.80;;;26.60;99.90;;;;;;5075051;28;20223;-54
2023/09/03 09:55:56;;;;;;;17.63;15.93;;;27.00;99.90;;;;;;5074714;28;20759;-55
2023/09/03 09:58:34;;;;;;;3.08;2.17;;;27.40;99.90;;;;;;5074999;28;20211;-54
2023/09/03 10:01:01;;;;;;;3.40;2.00;;;27.60;99.90;;;;;;5074438;28;20230;-53
2023/09/03 10:03:41;;;;;;;1.70;1.58;;;27.70;99.90;;;;;;5075155;28;20205;-53
2023/09/03 10:06:08;;;;;;;1.98;1.60;;;27.90;99.90;;;;;;5074503;28;20734;-53
2023/09/03 10:08:36;;;;;;;2.25;1.50;;;27.80;99.90;;;;;;5074626;28;20205;-54
2023/09/03 10:11:03;;;;;;;1.60;1.40;;;27.50;99.90;;;;;;5074826;28;20205;-53
2023/09/03 10:13:32;;;;;;;1.77;1.40;;;27.20;99.90;;;;;;5074672;28;20616;-54
2023/09/03 10:16:02;;;;;;;2.60;1.50;;;27.20;99.90;;;;;;5074434;28;20232;-55
2023/09/03 10:18:31;;;;;;;4.80;1.50;;;27.40;99.90;;;;;;5074863;28;20232;-54
2023/09/03 10:21:00;;;;;;;2.70;1.20;;;27.70;99.90;;;;;;5074497;28;20637;-54
2023/09/03 10:23:29;;;;;;;3.05;1.40;;;27.70;99.90;;;;;;5074367;28;20715;-53
2023/09/03 10:25:58;;;;;;;4.53;1.65;;;27.50;99.90;;;;;;5074116;28;20228;-53
2023/09/03 10:28:27;;;;;;;1.60;1.15;;;27.60;99.90;;;;;;5074538;28;20209;-53
2023/09/03 10:30:56;;;;;;;1.48;1.35;;;27.80;99.90;;;;;;5074456;28;20215;-54
2023/09/03 10:33:23;;;;;;;2.28;1.38;;;27.80;99.90;;;;;;5074419;28;20309;-53
2023/09/03 10:36:13;;;;;;;1.92;1.60;;;27.90;99.90;;;;;;5073804;28;20647;-55
2023/09/03 10:38:40;;;;;;;2.58;1.80;;;27.80;99.90;;;;;;5074382;28;20567;-54
2023/09/03 10:41:17;;;;;;;3.25;1.70;;;27.70;99.90;;;;;;5074266;28;20291;-54
2023/09/03 10:43:44;;;;;;;2.10;1.48;;;27.70;99.90;;;;;;5074322;28;20209;-56
2023/09/03 10:46:12;;;;;;;2.60;1.17;;;27.80;99.90;;;;;;5074051;28;20221;-53
2023/09/03 10:48:39;;;;;;;1.80;1.35;;;28.20;99.90;;;;;;5074057;28;20560;-54
2023/09/03 10:51:06;;;;;;;1.75;1.17;;;28.30;99.90;;;;;;5074126;28;20236;-58
2023/09/03 10:53:37;;;;;;;1.33;1.00;;;28.40;99.90;;;;;;5070990;28;20205;-61
2023/09/03 10:56:12;;;;;;;2.75;1.38;;;28.40;99.90;;;;;;5072988;28;20250;-57
2023/09/03 10:58:58;;;;;;;3.75;0.95;;;28.30;99.90;;;;;;5073262;28;20201;-59
2023/09/03 11:01:30;;;;;;;1.50;1.30;;;28.00;99.90;;;;;;5072921;28;20250;-58
2023/09/03 11:03:57;;;;;;;3.33;1.30;;;28.00;99.90;;;;;;5072970;28;20782;-58
2023/09/03 11:06:26;;;;;;;2.65;1.13;;;27.90;99.90;;;;;;5072280;28;20291;-58
2023/09/03 11:09:24;;;;;;;1.90;1.40;;;27.80;99.90;;;;;;5072329;28;20213;-57
2023/09/03 11:11:51;;;;;;;3.28;1.52;;;27.80;99.90;;;;;;5072442;28;20201;-62
2023/09/03 11:14:18;;;;;;;1.10;1.00;;;27.90;99.90;;;;;;5074097;28;20205;-61
2023/09/03 11:16:46;;;;;;;2.05;1.23;;;27.70;99.90;;;;;;5073708;28;20353;-57
2023/09/03 11:19:12;;;;;;;3.47;1.35;;;27.60;99.90;;;;;;5073431;28;20212;-58
2023/09/03 11:21:39;;;;;;;1.67;1.10;;;27.50;99.90;;;;;;5072997;28;20668;-58
2023/09/03 11:24:09;;;;;;;1.45;1.10;;;27.70;99.90;;;;;;5072961;28;20205;-58
2023/09/03 11:26:37;;;;;;;3.03;1.70;;;27.80;99.90;;;;;;5072444;28;20225;-58
2023/09/03 11:29:04;;;;;;;1.80;1.05;;;28.00;99.90;;;;;;5072930;28;20669;-58
2023/09/03 11:31:31;;;;;;;2.17;1.10;;;28.20;99.90;;;;;;5073104;28;20208;-57
2023/09/03 11:33:59;;;;;;;1.40;1.20;;;28.20;99.90;;;;;;5072679;28;20235;-58
2023/09/03 11:36:26;;;;;;;1.92;1.33;;;28.10;99.90;;;;;;5072409;28;20268;-57
2023/09/03 11:38:54;;;;;;;1.35;1.20;;;28.00;99.90;;;;;;5072926;28;20673;-57
2023/09/03 11:41:21;;;;;;;1.13;1.02;;;28.20;99.90;;;;;;5073071;28;20205;-59
2023/09/03 11:43:49;;;;;;;1.65;1.13;;;28.20;99.90;;;;;;5072972;28;20232;-57
2023/09/03 11:46:17;;;;;;;1.20;1.10;;;28.20;99.90;;;;;;5072400;28;20225;-60
2023/09/03 11:48:49;;;;;;;2.38;1.15;;;28.10;99.90;;;;;;5072325;28;20205;-58
2023/09/03 11:51:24;;;;;;;2.55;1.25;;;28.30;99.90;;;;;;5072745;28;20610;-59
2023/09/03 11:53:51;;;;;;;2.28;1.52;;;28.50;99.90;;;;;;5072587;28;20687;-58
2023/09/03 11:56:21;;;;;;;2.25;1.23;;;28.60;99.90;;;;;;5072196;28;20235;-59
2023/09/03 11:58:52;;;;;;;3.05;1.10;;;28.80;99.90;;;;;;5072548;28;20208;-57
2023/09/03 12:01:20;;;;;;;4.13;1.17;;;29.00;99.90;;;;;;5072328;28;20602;-56
2023/09/03 12:03:46;;;;;;;2.65;1.33;;;29.10;99.90;;;;;;5072197;28;20224;-55
2023/09/03 12:06:13;;;;;;;1.88;1.42;;;29.10;99.90;;;;;;5072185;28;20236;-57
2023/09/03 12:08:41;;;;;;;1.95;1.40;;;29.10;99.90;;;;;;5072407;28;20212;-57
2023/09/03 12:11:08;;;;;;;2.50;1.42;;;29.20;99.90;;;;;;5072290;28;20212;-56
2023/09/03 12:13:37;;;;;;;1.20;1.10;;;29.40;99.90;;;;;;5072255;28;20204;-57
2023/09/03 12:16:09;;;;;;;2.30;1.30;;;29.40;99.90;;;;;;5072100;28;20286;-56
2023/09/03 12:18:36;;;;;;;2.33;1.30;;;29.40;99.90;;;;;;5071829;28;20296;-57
2023/09/03 12:21:05;;;;;;;2.42;1.10;;;29.40;99.90;;;;;;5072226;28;20672;-56
2023/09/03 12:23:34;;;;;;;2.00;1.40;;;29.40;99.90;;;;;;5072440;28;20312;-56
2023/09/03 12:26:02;;;;;;;3.10;1.20;;;29.40;99.90;;;;;;5071831;28;20231;-56
2023/09/03 12:28:37;;;;;;;0.95;0.93;;;29.20;99.90;;;;;;5072107;28;20216;-57
2023/09/03 12:31:06;;;;;;;1.20;1.00;;;29.20;99.90;;;;;;5071816;28;20200;-56
2023/09/03 12:33:47;;;;;;;1.10;1.00;;;29.20;99.90;;;;;;5072162;28;20212;-58
2023/09/03 12:36:15;;;;;;;1.27;0.90;;;29.20;99.90;;;;;;5071436;28;20237;-56
2023/09/03 12:38:55;;;;;;;1.95;1.00;;;29.40;99.90;;;;;;5072020;28;20295;-58
2023/09/03 12:41:25;;;;;;;0.80;0.80;;;29.60;99.90;;;;;;5072318;28;20205;-56
2023/09/03 12:43:53;;;;;;;1.50;1.08;;;29.80;99.90;;;;;;5072035;28;20319;-56
2023/09/03 12:46:19;;;;;;;0.80;0.80;;;30.00;99.90;;;;;;5071641;28;20225;-59
2023/09/03 12:48:47;;;;;;;0.65;0.60;;;30.00;99.90;;;;;;5071789;28;20212;-57
2023/09/03 12:51:16;;;;;;;2.63;0.88;;;29.90;99.90;;;;;;5071763;28;20676;-58